createdAt,value
2018-07-02T00:00:13.898Z,16.20
2018-07-02T00:02:42.509Z,16.20
2018-07-02T00:05:11.027Z,16.20
2018-07-02T00:07:39.649Z,16.20
2018-07-02T00:10:09.685Z,16.20
2018-07-02T00:12:38.275Z,16.30
2018-07-02T00:15:07.050Z,16.30
2018-07-02T00:17:35.622Z,16.20
2018-07-02T00:20:05.074Z,16.20
2018-07-02T00:22:33.602Z,16.20
2018-07-02T00:25:02.247Z,16.30
2018-07-02T00:27:30.770Z,16.30
2018-07-02T00:29:59.621Z,16.30
2018-07-02T00:32:28.190Z,16.30
2018-07-02T00:34:56.742Z,16.20
2018-07-02T00:37:25.310Z,16.10
2018-07-02T00:39:53.854Z,16.10
2018-07-02T00:42:22.419Z,16.10
2018-07-02T00:44:50.990Z,16.00
2018-07-02T00:47:19.546Z,16.00
2018-07-02T00:49:48.220Z,15.90
2018-07-02T00:52:16.711Z,15.80
2018-07-02T00:54:45.219Z,15.80
2018-07-02T00:57:13.742Z,15.60
2018-07-02T00:59:42.315Z,15.60
2018-07-02T01:02:10.894Z,15.60
2018-07-02T01:04:39.458Z,15.60
2018-07-02T01:07:08.797Z,15.60
2018-07-02T01:09:37.354Z,15.60
2018-07-02T01:12:06.186Z,15.60
2018-07-02T01:14:34.737Z,15.60
2018-07-02T01:17:03.333Z,15.50
2018-07-02T01:19:31.866Z,15.40
2018-07-02T01:22:00.403Z,15.30
2018-07-02T01:24:29.034Z,15.20
2018-07-02T01:26:57.578Z,15.20
2018-07-02T01:29:26.159Z,15.20
2018-07-02T01:31:54.698Z,15.30
2018-07-02T01:34:23.282Z,15.20
2018-07-02T01:36:51.818Z,15.20
2018-07-02T01:39:20.715Z,15.20
2018-07-02T01:41:49.257Z,15.20
2018-07-02T01:44:17.817Z,15.20
2018-07-02T01:46:46.387Z,15.20
2018-07-02T01:49:14.938Z,15.20
2018-07-02T01:51:43.505Z,15.20
2018-07-02T01:54:12.057Z,15.20
2018-07-02T01:56:40.618Z,15.20
2018-07-02T01:59:09.219Z,15.10
2018-07-02T02:01:37.781Z,15.10
2018-07-02T02:04:06.445Z,15.00
2018-07-02T02:06:35.019Z,15.00
2018-07-02T02:09:03.793Z,14.90
2018-07-02T02:11:32.358Z,14.90
2018-07-02T02:14:00.918Z,15.00
2018-07-02T02:16:29.465Z,15.00
2018-07-02T02:18:58.005Z,15.00
2018-07-02T02:21:26.560Z,14.90
2018-07-02T02:23:55.120Z,15.00
2018-07-02T02:26:23.690Z,15.00
2018-07-02T02:28:52.277Z,14.90
2018-07-02T02:31:20.829Z,14.90
2018-07-02T02:33:49.343Z,15.00
2018-07-02T02:36:17.888Z,15.00
2018-07-02T02:38:46.450Z,15.00
2018-07-02T02:41:14.985Z,15.00
2018-07-02T02:43:43.545Z,14.90
2018-07-02T02:46:12.078Z,14.80
2018-07-02T02:48:40.789Z,14.80
2018-07-02T02:51:09.351Z,14.80
2018-07-02T02:53:37.857Z,14.80
2018-07-02T02:56:06.490Z,14.80
2018-07-02T02:58:35.040Z,14.80
2018-07-02T03:01:03.653Z,14.80
2018-07-02T03:03:32.363Z,14.80
2018-07-02T03:06:00.920Z,14.70
2018-07-02T03:08:29.496Z,14.70
2018-07-02T03:10:58.067Z,14.80
2018-07-02T03:13:26.624Z,14.80
2018-07-02T03:15:55.915Z,14.80
2018-07-02T03:18:24.458Z,14.80
2018-07-02T03:20:52.982Z,14.80
2018-07-02T03:23:21.569Z,14.80
2018-07-02T03:25:50.112Z,14.80
2018-07-02T03:28:18.913Z,14.90
2018-07-02T03:30:47.508Z,14.90
2018-07-02T03:33:16.071Z,14.90
2018-07-02T03:35:44.615Z,14.90
2018-07-02T03:38:13.173Z,14.90
2018-07-02T03:40:41.758Z,14.80
2018-07-02T03:43:10.307Z,14.80
2018-07-02T03:45:38.869Z,14.80
2018-07-02T03:48:07.444Z,14.80
2018-07-02T03:50:35.982Z,14.80
2018-07-02T03:53:04.703Z,14.80
2018-07-02T03:55:33.196Z,14.80
2018-07-02T03:58:01.724Z,14.80
2018-07-02T04:00:30.327Z,14.80
2018-07-02T04:02:58.861Z,14.80
2018-07-02T04:05:27.410Z,14.80
2018-07-02T04:07:56.038Z,14.80
2018-07-02T04:10:24.726Z,14.80
2018-07-02T04:12:53.319Z,14.80
2018-07-02T04:15:21.805Z,14.80
2018-07-02T04:17:50.393Z,14.80
2018-07-02T04:20:18.906Z,14.90
2018-07-02T04:22:47.469Z,14.90
2018-07-02T04:25:16.043Z,14.90
2018-07-02T04:27:44.593Z,15.10
2018-07-02T04:30:13.259Z,15.30
2018-07-02T04:32:41.808Z,15.70
2018-07-02T04:35:10.368Z,16.20
2018-07-02T04:37:38.912Z,16.80
2018-07-02T04:40:07.495Z,17.40
2018-07-02T04:42:36.049Z,18.10
2018-07-02T04:45:04.633Z,18.90
2018-07-02T04:47:33.140Z,19.60
2018-07-02T04:50:01.698Z,19.40
2018-07-02T04:52:30.251Z,18.60
2018-07-02T04:54:58.844Z,17.80
2018-07-02T04:57:27.389Z,17.30
2018-07-02T04:59:55.945Z,16.90
2018-07-02T05:02:24.511Z,16.70
2018-07-02T05:04:53.062Z,16.70
2018-07-02T05:07:21.572Z,16.80
2018-07-02T05:09:50.080Z,16.80
2018-07-02T05:12:18.605Z,17.00
2018-07-02T05:14:47.142Z,17.10
2018-07-02T05:17:15.671Z,17.30
2018-07-02T05:19:44.571Z,17.40
2018-07-02T05:22:13.090Z,17.60
2018-07-02T05:24:41.935Z,18.00
2018-07-02T05:27:10.227Z,18.70
2018-07-02T05:29:38.779Z,19.70
2018-07-02T05:32:07.393Z,20.80
2018-07-02T05:34:35.919Z,22.00
2018-07-02T05:37:04.651Z,22.50
2018-07-02T05:39:33.374Z,22.80
2018-07-02T05:42:01.973Z,23.30
2018-07-02T05:44:30.591Z,23.90
2018-07-02T05:46:59.180Z,24.40
2018-07-02T05:49:27.784Z,24.60
2018-07-02T05:51:56.343Z,24.90
2018-07-02T05:54:24.907Z,25.00
2018-07-02T05:56:53.431Z,24.10
2018-07-02T05:59:21.965Z,23.80
2018-07-02T06:01:50.504Z,24.10
2018-07-02T06:04:19.020Z,24.90
2018-07-02T06:06:47.635Z,25.80
2018-07-02T06:11:44.428Z,26.70
2018-07-02T06:14:12.990Z,27.30
2018-07-02T06:16:41.534Z,27.50
2018-07-02T06:19:10.074Z,27.60
2018-07-02T06:21:38.615Z,27.60
2018-07-02T06:24:07.185Z,27.90
2018-07-02T06:26:35.698Z,27.70
2018-07-02T06:29:04.241Z,27.50
2018-07-02T06:31:32.780Z,27.60
2018-07-02T06:34:01.304Z,27.50
2018-07-02T06:36:29.831Z,27.70
2018-07-02T06:38:58.369Z,27.80
2018-07-02T06:41:26.939Z,27.70
2018-07-02T06:43:55.470Z,27.60
2018-07-02T06:46:24.079Z,27.80
2018-07-02T06:48:52.650Z,27.90
2018-07-02T06:51:21.190Z,27.80
2018-07-02T06:53:49.725Z,27.90
2018-07-02T06:56:18.262Z,27.70
2018-07-02T06:58:46.862Z,27.90
2018-07-02T07:01:15.385Z,28.10
2018-07-02T07:03:43.909Z,28.20
2018-07-02T07:06:12.574Z,27.60
2018-07-02T07:08:41.842Z,27.50
2018-07-02T07:11:10.378Z,27.60
2018-07-02T07:13:38.937Z,27.60
2018-07-02T07:16:07.449Z,27.50
2018-07-02T07:18:36.227Z,27.60
2018-07-02T07:21:04.778Z,27.60
2018-07-02T07:23:33.345Z,27.60
2018-07-02T07:26:01.918Z,27.80
2018-07-02T07:28:30.419Z,28.10
2018-07-02T07:30:59.027Z,28.20
2018-07-02T07:33:27.747Z,28.50
2018-07-02T07:35:56.274Z,28.80
2018-07-02T07:38:24.794Z,29.10
2018-07-02T07:40:53.834Z,29.30
2018-07-02T07:43:22.385Z,29.30
2018-07-02T07:45:50.919Z,29.80
2018-07-02T07:48:19.464Z,30.40
2018-07-02T07:50:47.948Z,30.70
2018-07-02T07:53:16.506Z,31.20
2018-07-02T07:55:45.022Z,31.60
2018-07-02T07:58:13.578Z,31.90
2018-07-02T08:00:42.191Z,31.40
2018-07-02T08:03:10.699Z,30.80
2018-07-02T08:05:39.289Z,31.10
2018-07-02T08:08:07.861Z,30.80
2018-07-02T08:10:36.432Z,30.60
2018-07-02T08:13:05.023Z,30.10
2018-07-02T08:15:33.549Z,29.80
2018-07-02T08:18:02.145Z,29.80
2018-07-02T08:20:30.726Z,29.60
2018-07-02T08:22:59.280Z,28.10
2018-07-02T08:25:27.874Z,28.30
2018-07-02T08:27:56.390Z,28.00
2018-07-02T08:30:24.945Z,27.90
2018-07-02T08:32:53.571Z,27.70
2018-07-02T08:35:22.129Z,27.70
2018-07-02T08:37:51.490Z,27.50
2018-07-02T08:40:20.032Z,26.90
2018-07-02T08:45:16.809Z,26.40
2018-07-02T08:47:45.351Z,26.50
2018-07-02T08:50:13.887Z,26.40
2018-07-02T08:52:42.451Z,26.60
2018-07-02T08:55:10.986Z,26.70
2018-07-02T08:57:39.537Z,26.80
2018-07-02T09:00:08.131Z,26.90
2018-07-02T09:02:36.713Z,26.90
2018-07-02T09:05:05.996Z,26.90
2018-07-02T09:07:34.566Z,26.80
2018-07-02T09:10:03.171Z,26.90
2018-07-02T09:12:31.706Z,27.30
2018-07-02T09:15:00.255Z,27.50
2018-07-02T09:17:28.760Z,27.70
2018-07-02T09:19:57.302Z,27.90
2018-07-02T09:22:25.858Z,27.90
2018-07-02T09:24:54.836Z,27.90
2018-07-02T09:29:51.609Z,27.70
2018-07-02T09:32:20.174Z,27.50
2018-07-02T09:34:48.711Z,27.40
2018-07-02T09:37:17.259Z,27.40
2018-07-02T09:39:45.870Z,27.50
2018-07-02T09:42:14.483Z,27.30
2018-07-02T09:44:43.094Z,27.00
2018-07-02T09:47:12.648Z,26.90
2018-07-02T09:49:41.456Z,26.90
2018-07-02T09:52:09.961Z,26.90
2018-07-02T09:54:38.448Z,26.80
2018-07-02T09:57:07.081Z,26.90
2018-07-02T09:59:35.676Z,27.00
2018-07-02T10:02:04.242Z,26.90
2018-07-02T10:04:33.362Z,26.90
2018-07-02T10:07:02.864Z,27.00
2018-07-02T10:09:31.407Z,26.90
2018-07-02T10:12:00.276Z,26.80
2018-07-02T10:14:28.829Z,26.80
2018-07-02T10:16:57.442Z,26.90
2018-07-02T10:19:25.980Z,26.90
2018-07-02T10:21:54.886Z,26.70
2018-07-02T10:24:23.953Z,27.10
2018-07-02T10:26:52.540Z,27.40
2018-07-02T10:29:21.125Z,27.60
2018-07-02T10:31:49.647Z,27.50
2018-07-02T10:34:18.186Z,27.80
2018-07-02T10:36:46.785Z,27.80
2018-07-02T10:39:16.029Z,27.90
2018-07-02T10:41:44.844Z,27.70
2018-07-02T10:46:42.107Z,27.40
2018-07-02T10:49:11.253Z,27.60
2018-07-02T10:51:40.182Z,28.00
2018-07-02T10:54:10.253Z,28.40
2018-07-02T10:56:40.750Z,28.60
2018-07-02T10:59:09.316Z,28.60
2018-07-02T11:01:37.847Z,27.90
2018-07-02T11:04:07.377Z,27.70
2018-07-02T11:06:36.681Z,28.00
2018-07-02T11:09:07.131Z,28.30
2018-07-02T11:14:04.954Z,28.40
2018-07-02T11:16:33.706Z,28.60
2018-07-02T11:19:02.259Z,28.70
2018-07-02T11:21:30.794Z,28.70
2018-07-02T11:23:59.355Z,28.80
2018-07-02T11:26:27.931Z,28.90
2018-07-02T11:31:24.646Z,28.90
2018-07-02T11:33:53.816Z,28.80
2018-07-02T11:36:22.399Z,28.70
2018-07-02T11:38:51.263Z,28.60
2018-07-02T11:41:19.878Z,28.50
2018-07-02T11:43:48.429Z,28.70
2018-07-02T11:46:16.969Z,28.70
2018-07-02T11:48:45.534Z,28.70
2018-07-02T11:51:14.118Z,28.80
2018-07-02T11:53:43.135Z,28.90
2018-07-02T11:56:11.648Z,28.80
2018-07-02T11:58:40.455Z,28.90
2018-07-02T12:01:09.077Z,28.90
2018-07-02T12:03:37.642Z,28.90
2018-07-02T12:06:06.218Z,29.00
2018-07-02T12:08:34.796Z,29.10
2018-07-02T12:11:03.336Z,29.10
2018-07-02T12:13:31.905Z,29.10
2018-07-02T12:16:00.444Z,29.00
2018-07-02T12:18:29.172Z,28.70
2018-07-02T12:20:57.724Z,28.60
2018-07-02T12:23:26.230Z,28.90
2018-07-02T12:25:54.777Z,29.00
2018-07-02T12:28:23.293Z,29.10
2018-07-02T12:30:51.825Z,29.30
2018-07-02T12:33:21.797Z,29.30
2018-07-02T12:38:34.120Z,29.20
2018-07-02T12:41:02.834Z,29.10
2018-07-02T12:43:31.524Z,29.20
2018-07-02T12:46:00.264Z,29.40
2018-07-02T12:48:28.876Z,29.30
2018-07-02T12:50:57.596Z,29.20
2018-07-02T12:53:26.412Z,29.20
2018-07-02T12:55:55.208Z,29.10
2018-07-02T12:58:24.098Z,29.20
2018-07-02T13:00:53.891Z,29.20
2018-07-02T13:03:22.631Z,29.20
2018-07-02T13:05:51.729Z,29.10
2018-07-02T13:08:20.534Z,28.90
2018-07-02T13:10:49.331Z,29.10
2018-07-02T13:15:49.735Z,29.30
2018-07-02T13:18:18.575Z,29.30
2018-07-02T13:20:48.226Z,29.30
2018-07-02T13:23:16.852Z,29.50
2018-07-02T13:25:45.444Z,29.50
2018-07-02T13:28:16.591Z,29.40
2018-07-02T13:30:46.790Z,29.40
2018-07-02T13:33:15.396Z,29.50
2018-07-02T13:38:13.148Z,29.60
2018-07-02T13:40:42.736Z,29.40
2018-07-02T13:43:12.210Z,29.30
2018-07-02T13:45:41.610Z,29.30
2018-07-02T13:48:11.944Z,29.20
2018-07-02T13:50:40.549Z,29.30
2018-07-02T13:53:09.150Z,29.30
2018-07-02T13:55:37.944Z,29.40
2018-07-02T13:58:19.328Z,29.50
2018-07-02T14:00:47.997Z,29.60
2018-07-02T14:03:16.705Z,29.70
2018-07-02T14:05:45.266Z,29.90
2018-07-02T14:08:13.839Z,29.70
2018-07-02T14:10:42.462Z,29.60
2018-07-02T14:13:11.073Z,29.50
2018-07-02T14:15:39.710Z,29.50
2018-07-02T14:18:08.263Z,29.40
2018-07-02T14:20:36.852Z,29.30
2018-07-02T14:23:05.451Z,29.50
2018-07-02T14:25:34.038Z,29.60
2018-07-02T14:28:03.300Z,29.60
2018-07-02T14:30:32.205Z,29.80
2018-07-02T14:33:00.846Z,29.90
2018-07-02T14:35:29.371Z,29.90
2018-07-02T14:37:57.886Z,29.90
2018-07-02T14:40:38.302Z,30.00
2018-07-02T14:43:12.361Z,29.90
2018-07-02T14:45:50.934Z,29.90
2018-07-02T14:48:21.741Z,29.90
2018-07-02T14:50:51.674Z,29.90
2018-07-02T14:53:30.927Z,29.90
2018-07-02T14:56:04.919Z,29.80
2018-07-02T14:58:34.599Z,29.80
2018-07-02T15:01:03.169Z,29.80
2018-07-02T15:03:33.222Z,29.90
2018-07-02T15:08:30.014Z,29.70
2018-07-02T15:11:00.845Z,29.70
2018-07-02T15:13:29.888Z,29.70
2018-07-02T15:16:00.801Z,29.60
2018-07-02T15:18:30.010Z,29.60
2018-07-02T15:21:01.807Z,29.60
2018-07-02T15:23:37.566Z,29.50
2018-07-02T15:26:07.641Z,29.50
2018-07-02T15:28:37.614Z,29.40
2018-07-02T15:31:23.090Z,29.40
2018-07-02T15:33:52.122Z,29.20
2018-07-02T15:36:22.065Z,29.20
2018-07-02T15:38:54.682Z,29.30
2018-07-02T15:41:25.485Z,29.20
2018-07-02T15:43:54.065Z,29.10
2018-07-02T15:46:22.566Z,29.00
2018-07-02T15:48:51.121Z,29.10
2018-07-02T15:51:19.960Z,29.20
2018-07-02T15:53:50.727Z,29.20
2018-07-02T15:56:19.944Z,29.20
2018-07-02T15:58:48.461Z,29.10
2018-07-02T16:01:19.306Z,29.10
2018-07-02T16:03:47.910Z,29.00
2018-07-02T16:06:16.464Z,29.00
2018-07-02T16:08:47.403Z,29.10
2018-07-02T16:11:16.162Z,29.20
2018-07-02T16:13:44.637Z,29.10
2018-07-02T16:16:13.338Z,29.10
2018-07-02T16:18:41.890Z,29.20
2018-07-02T16:21:10.534Z,29.30
2018-07-02T16:23:39.085Z,29.20
2018-07-02T16:26:08.040Z,29.20
2018-07-02T16:28:38.298Z,29.20
2018-07-02T16:31:07.024Z,29.10
2018-07-02T16:33:35.553Z,29.10
2018-07-02T16:36:04.656Z,29.00
2018-07-02T16:38:33.264Z,28.80
2018-07-02T16:41:01.946Z,28.80
2018-07-02T16:43:30.506Z,28.80
2018-07-02T16:45:59.052Z,28.80
2018-07-02T16:48:27.712Z,28.80
2018-07-02T16:50:56.226Z,28.70
2018-07-02T16:53:24.786Z,28.70
2018-07-02T16:55:53.356Z,28.70
2018-07-02T16:58:23.043Z,28.60
2018-07-02T17:00:51.549Z,28.50
2018-07-02T17:03:20.078Z,28.50
2018-07-02T17:05:48.668Z,28.50
2018-07-02T17:08:17.564Z,28.40
2018-07-02T17:10:46.128Z,28.40
2018-07-02T17:13:14.638Z,28.40
2018-07-02T17:15:43.164Z,28.40
2018-07-02T17:18:11.686Z,28.30
2018-07-02T17:20:40.262Z,28.20
2018-07-02T17:23:09.379Z,28.20
2018-07-02T17:25:37.942Z,28.20
2018-07-02T17:28:06.836Z,28.10
2018-07-02T17:30:35.381Z,28.00
2018-07-02T17:33:03.954Z,27.90
2018-07-02T17:35:32.494Z,27.90
2018-07-02T17:38:01.009Z,27.90
2018-07-02T17:40:34.471Z,27.80
2018-07-02T17:43:03.316Z,27.80
2018-07-02T17:45:31.880Z,27.80
2018-07-02T17:48:03.028Z,27.60
2018-07-02T17:50:32.707Z,27.60
2018-07-02T17:53:01.248Z,27.50
2018-07-02T17:55:29.818Z,27.50
2018-07-02T17:57:58.425Z,27.40
2018-07-02T18:00:27.513Z,27.30
2018-07-02T18:02:56.050Z,27.20
2018-07-02T18:05:25.087Z,27.20
2018-07-02T18:07:53.706Z,27.10
2018-07-02T18:10:22.330Z,27.00
2018-07-02T18:12:50.884Z,26.90
2018-07-02T18:15:19.412Z,26.90
2018-07-02T18:17:54.246Z,26.90
2018-07-02T18:20:23.597Z,26.80
2018-07-02T18:22:52.126Z,26.70
2018-07-02T18:25:20.682Z,26.60
2018-07-02T18:27:49.238Z,26.60
2018-07-02T18:30:18.235Z,26.50
2018-07-02T18:32:46.748Z,26.30
2018-07-02T18:37:47.891Z,26.20
2018-07-02T18:40:16.452Z,26.00
2018-07-02T18:42:45.042Z,26.00
2018-07-02T18:45:13.604Z,25.80
2018-07-02T18:47:42.765Z,25.80
2018-07-02T18:50:11.600Z,25.70
2018-07-02T18:52:40.140Z,25.60
2018-07-02T18:55:08.715Z,25.50
2018-07-02T18:57:37.980Z,25.40
2018-07-02T19:00:07.107Z,25.30
2018-07-02T19:02:35.686Z,25.20
2018-07-02T19:05:04.423Z,25.00
2018-07-02T19:07:32.962Z,24.90
2018-07-02T19:10:01.523Z,24.70
2018-07-02T19:12:30.104Z,24.50
2018-07-02T19:14:58.669Z,24.40
2018-07-02T19:17:27.238Z,24.20
2018-07-02T19:19:55.819Z,24.20
2018-07-02T19:22:24.370Z,24.10
2018-07-02T19:24:52.884Z,23.90
2018-07-02T19:27:21.500Z,23.80
2018-07-02T19:29:50.107Z,23.70
2018-07-02T19:32:18.578Z,23.60
2018-07-02T19:34:47.402Z,23.40
2018-07-02T19:37:15.910Z,23.30
2018-07-02T19:39:44.397Z,23.20
2018-07-02T19:42:12.921Z,23.00
2018-07-02T19:44:41.509Z,22.90
2018-07-02T19:47:10.095Z,22.80
2018-07-02T19:49:38.838Z,22.70
2018-07-02T19:52:07.370Z,22.60
2018-07-02T19:54:35.925Z,22.50
2018-07-02T19:57:04.573Z,22.40
2018-07-02T19:59:33.576Z,22.30
2018-07-02T20:02:02.110Z,22.20
2018-07-02T20:04:30.826Z,22.10
2018-07-02T20:06:59.377Z,22.10
2018-07-02T20:09:28.381Z,22.00
2018-07-02T20:11:56.955Z,22.00
2018-07-02T20:16:53.729Z,22.00
2018-07-02T20:19:22.258Z,21.90
2018-07-02T20:21:51.044Z,21.80
2018-07-02T20:24:20.841Z,21.80
2018-07-02T20:26:49.388Z,21.70
2018-07-02T20:29:18.264Z,21.70
2018-07-02T20:31:46.863Z,21.70
2018-07-02T20:34:15.530Z,21.70
2018-07-02T20:36:44.214Z,21.60
2018-07-02T20:39:13.095Z,21.60
2018-07-02T20:41:41.754Z,21.60
2018-07-02T20:44:10.302Z,21.50
2018-07-02T20:46:38.825Z,21.50
2018-07-02T20:49:07.598Z,21.40
2018-07-02T20:51:36.114Z,21.40
2018-07-02T20:54:04.704Z,21.40
2018-07-02T20:56:33.265Z,21.20
2018-07-02T20:59:01.851Z,21.10
2018-07-02T21:01:30.301Z,21.00
2018-07-02T21:03:58.792Z,20.90
2018-07-02T21:06:27.305Z,20.80
2018-07-02T21:08:55.816Z,20.80
2018-07-02T21:13:52.714Z,20.90
2018-07-02T21:16:21.951Z,20.80
2018-07-02T21:18:50.569Z,20.80
2018-07-02T21:21:19.306Z,20.80
2018-07-02T21:23:47.902Z,20.70
2018-07-02T21:26:16.553Z,20.50
2018-07-02T21:28:45.205Z,20.50
2018-07-02T21:31:13.723Z,20.40
2018-07-02T21:33:42.234Z,20.30
2018-07-02T21:36:10.757Z,20.30
2018-07-02T21:38:39.337Z,20.20
2018-07-02T21:41:07.896Z,20.20
2018-07-02T21:43:36.402Z,20.20
2018-07-02T21:46:05.003Z,20.20
2018-07-02T21:48:33.533Z,20.10
2018-07-02T21:51:02.018Z,20.00
2018-07-02T21:53:30.573Z,19.90
2018-07-02T21:55:59.125Z,19.90
2018-07-02T21:58:27.930Z,19.90
2018-07-02T22:00:56.510Z,19.80
2018-07-02T22:03:25.045Z,19.70
2018-07-02T22:05:53.631Z,19.60
2018-07-02T22:08:22.190Z,19.50
2018-07-02T22:10:50.774Z,19.40
2018-07-02T22:13:19.286Z,19.40
2018-07-02T22:15:47.817Z,19.40
2018-07-02T22:18:16.606Z,19.30
2018-07-02T22:20:45.112Z,19.30
2018-07-02T22:23:13.650Z,19.20
2018-07-02T22:25:42.211Z,19.20
2018-07-02T22:28:10.730Z,19.00
2018-07-02T22:30:39.204Z,19.00
2018-07-02T22:33:08.034Z,19.00
2018-07-02T22:35:36.586Z,18.90
2018-07-02T22:38:05.158Z,18.90
2018-07-02T22:40:33.708Z,18.90
2018-07-02T22:43:02.254Z,18.90
2018-07-02T22:45:30.845Z,18.80
2018-07-02T22:47:59.370Z,18.70
2018-07-02T22:50:27.966Z,18.60
2018-07-02T22:52:56.458Z,18.70
2018-07-02T22:55:25.228Z,18.60
2018-07-02T22:57:53.742Z,18.60
2018-07-02T23:00:22.310Z,18.50
2018-07-02T23:02:50.817Z,18.50
2018-07-02T23:05:19.330Z,18.40
2018-07-02T23:07:47.826Z,18.40
2018-07-02T23:10:16.386Z,18.40
2018-07-02T23:12:44.884Z,18.50
2018-07-02T23:15:13.413Z,18.50
2018-07-02T23:17:41.926Z,18.40
2018-07-02T23:20:10.438Z,18.30
2018-07-02T23:22:56.594Z,18.30
2018-07-02T23:25:25.387Z,18.30
2018-07-02T23:27:54.082Z,18.20
2018-07-02T23:30:22.620Z,18.20
2018-07-02T23:32:51.133Z,18.10
2018-07-02T23:35:19.739Z,18.10
2018-07-02T23:37:50.007Z,18.10
2018-07-02T23:40:19.209Z,18.10
2018-07-02T23:42:48.074Z,18.00
2018-07-02T23:45:16.609Z,18.10
2018-07-02T23:47:45.110Z,18.00
2018-07-02T23:50:13.871Z,18.00
2018-07-02T23:52:42.854Z,18.10
2018-07-02T23:55:11.764Z,18.10
2018-07-02T23:57:40.366Z,18.00
